Rachel, Nevada Weather observations

Data are for observation ending at time listed.
 Day   Time    Ave.   Ave.  Ave.  Vector   Max.   Stn.    Total    Solar   Ave.  
  of    of     Air    Rel.  Wind   Wind    Wind   Baro.  Precip.   Rad.    Soil  
Year   Day     Temp.  Hum.  Speed  Dir.    Gust   Pres.                    Temp. 
2016   (PST)    F      %     mph   deg.    mph     mb.     in.     W/m2     F   
------------------------------------------------------------------------------
 145    5:30   45.8    44    4.0   124      5.5   840.9    0.00      94    54.6
 145    5:40   48.9    40    1.4   101      2.6   841.1    0.00     118    55.4
 145    5:50   51.7    36    2.0   106      4.3   841.4    0.00     142    56.4
 145    6:00   52.0    36    2.2    96      3.1   841.7    0.00     170    56.9
 145    6:10   53.2    34    3.2    64      5.0   841.9    0.00     192    57.5
 145    6:20   53.2    34    3.8    33      7.1   842.3    0.00     209    58.0
 145    6:30   52.2    34    5.2    18      7.5   842.6    0.00     234    58.4
 145    6:40   52.3    34    5.8    37      8.0   843.4    0.00     253    58.7
 145    6:50   52.5    34    6.6    26      8.8   843.7    0.00     286    59.0
 145    7:00   54.1    32    4.7    40      7.7   843.7    0.00     310    59.6
 145    7:10   54.8    32    5.1     6      8.7   843.8    0.00     335    60.1
 145    7:20   56.2    30    2.4   327      5.1   844.0    0.00     361    60.7
 145    7:30   56.9    30    4.6   303     10.7   843.7    0.00     386    61.0
 145    7:40   57.6    30    6.8   278     14.8   844.4    0.00     407    60.8
 145    7:50   59.3    28    9.1   252     14.1   844.5    0.00     427    60.6
 145    8:00   59.6    28    9.3   250     16.2   844.3    0.00     449    61.2
 145    8:10   59.8    27    9.9   260     15.7   844.2    0.00     471    61.9
 145    8:20   60.3    27   10.9   256     18.0   844.5    0.00     492    62.7
 145    8:30   60.5    27   11.3   256     18.5   844.4    0.00     511    63.3
 145    8:40   61.4    26    9.5   263     15.4   844.4    0.00     532    63.9
 145    8:50   61.1    26    8.3   272     14.0   844.3    0.00     553    64.5
 145    9:00   61.0    27    8.2   278     16.4   843.9    0.00     574    65.1
 145    9:10   61.8    26    9.9   286     16.2   843.8    0.00     491    65.8
 145    9:20   61.5    26   11.8   266     22.6   843.9    0.00     348    65.7
 145    9:30   61.0    26   11.4   279     20.5   843.8    0.00     505    65.4
 145    9:40   63.0    24   11.3   250     19.6   843.7    0.00     689    66.3
 145    9:50   63.2    24    8.2   207     19.6   843.9    0.00     713    67.2
 145   10:00   63.2    24    6.7   254     20.5   844.1    0.00     516    67.7
 145   10:10   63.6    22    9.9   145     17.2   844.4    0.00     732    68.2
 145   10:20   62.7    23    9.0   196     15.7   844.6    0.00     491    68.9
 145   10:30   61.9    25    8.6   227     19.2   844.5    0.00     160    68.3
 145   10:40   62.3    25    9.5   237     18.7   844.4    0.00     238    67.4
 145   10:50   62.7    25   12.6   254     18.6   844.2    0.00     294    67.0
 145   11:00   62.3    25    8.7   243     16.7   844.2    0.00     199    66.7
 145   11:10   63.9    24    9.2   236     15.2   844.2    0.00     746    66.8
 145   11:20   63.3    24    9.0   222     15.1   844.3    0.00     169    67.3
 145   11:30   62.5    24    8.9   174     14.0   844.4    0.00     169    67.1
 145   11:40   62.2    24    7.5   211     15.6   844.5    0.00     177    66.9
 145   11:50   63.8    22    9.0   250     19.0   844.3    0.00     549    66.6
 145   12:00   64.5    20   13.1   218     19.9   844.3    0.00     471    66.8
 145   12:10   64.4    21   13.7   240     22.0   844.4    0.00     326    66.9
 145   12:20   64.7    21   12.1   229     20.8   844.5    0.00     511    66.9
 145   12:30   65.3    19   11.8   242     21.4   844.5    0.00     750    66.9
 145   12:40   66.0    19   11.3   229     21.1   844.6    0.00     800    67.0
 145   12:50   66.4    19   11.7   240     18.9   844.8    0.00     630    67.3
 145   13:00   65.8    19   10.3   231     20.4   844.8    0.00     581    67.3
 145   13:10   65.1    20   12.1   198     20.5   844.9    0.00     479    67.4
 145   13:20   66.6    20   13.9   241     23.8   845.0    0.00     507    67.5
 145   13:30   65.6    21   16.8   239     29.5   845.0    0.00     510    67.4
 145   13:40   64.8    27   22.1   249     36.2   845.1    0.00     403    67.2
 145   13:50   61.3    32   26.1   258     36.0   845.3    0.00     310    66.7
 145   14:00   61.4    32   25.3   266     33.4   845.2    0.00     584    66.2
 145   14:10   60.0    33   23.3   264     32.3   845.2    0.00     275    65.9
 145   14:20   59.1    32   24.5   259     33.4   845.1    0.00     226    65.4
 145   14:30   59.8    31   25.0   250     33.8   845.0    0.00     391    65.1
 145   14:40   60.3    34   23.4   246     34.6   845.1    0.00     469    65.1
 145   14:50   60.0    34   24.3   244     36.2   845.1    0.00     522    65.0
 145   15:00   60.0    35   23.5   242     34.4   845.2    0.00     529    64.9
 145   15:10   59.9    35   22.5   242     35.4   845.2    0.00     504    64.8
 145   15:20   60.7    33   20.0   244     28.9   845.3    0.00     484    64.9
 145   15:30   61.7    30   19.0   253     27.5   845.3    0.00     460    65.0
 145   15:40   62.5    27   18.0   248     26.1   845.3    0.00     436    65.0
 145   15:50   62.9    27   17.6   252     25.4   845.4    0.00     412    65.0
 145   16:00   63.0    28   16.0   249     26.1   845.6    0.00     385    64.9
 145   16:10   63.0    28   14.9   246     22.6   845.6    0.00     364    64.9
 145   16:20   63.1    29   13.6   254     21.0   845.6    0.00     297    64.8
 145   16:30   63.5    29   15.6   247     27.4   845.7    0.00     355    64.9
 145   16:40   63.7    27   15.6   240     24.6   845.7    0.00     328    64.9
 145   16:50   64.1    26   13.8   269     19.6   845.8    0.00     285    65.0
 145   17:00   62.9    27   13.6   294     23.2   845.8    0.00     250    65.0
 145   17:10   62.8    28   14.1   298     21.0   845.8    0.00     231    65.0
 145   17:20   62.9    28   13.0   296     20.5   845.8    0.00     206    64.9
 145   17:30   62.6    28   13.0   293     18.6   845.8    0.00     178    64.9
 145   17:40   62.5    28   11.9   297     16.5   845.8    0.00     154    64.8
 145   17:50   62.4    27   11.6   297     16.1   845.8    0.00     130    64.7
 145   18:00   62.0    27   10.4   298     14.7   845.8    0.00     108    64.6
 145   18:10   62.4    27    8.7   271     12.6   845.8    0.00      86    64.3
 145   18:20   61.7    28    9.5   282     14.5   845.9    0.00      62    64.2
 145   18:30   61.0    28    8.3   289     12.6   846.0    0.00      40    64.0
 145   18:40   59.9    30    8.2   292     12.5   846.0    0.00      21    63.8
 145   18:50   58.8    32    7.7   285     11.5   846.0    0.00      10    63.6
 145   19:00   58.1    32    8.6   281     11.1   845.9    0.00       4    63.3
 145   19:10   57.5    34    5.8   278      8.8   846.0    0.00       3    63.0
 145   19:20   56.5    35    4.5   268      6.7   845.9    0.00       0    62.8
 145   19:30   55.6    37    3.9   258      5.8   845.8    0.00       0    62.5
 145   19:40   55.5    36    5.0   260      7.2   846.1    0.00       0    62.4
 145   19:50   54.9    37    4.8   269      5.9   846.0    0.00       0    62.1
 145   20:00   54.4    38    4.3   286      5.3   846.6    0.00       0    61.9
 145   20:10   53.6    39    4.6   282      6.2   846.9    0.00       0    61.7
 145   20:20   53.5    41    4.3   272      6.0   847.0    0.00       0    61.4
 145   20:30   52.8    43    2.5   295      4.8   847.2    0.00       0    61.3
 145   20:40   51.7    45    3.0   247      4.7   847.3    0.00       0    61.1
 145   20:50   50.7    46    4.2   233      5.6   847.4    0.00       0    60.8
 145   21:00   50.8    46    5.2   245      7.7   847.1    0.00       0    60.5
 145   21:10   52.6    43    5.4   257      7.7   847.4    0.00       0    60.4
 145   21:20   52.6    44    5.0   248      6.6   847.7    0.00       0    60.3
 145   21:30   51.5    46    4.2   226      6.0   847.7    0.00       0    60.2
 145   21:40   50.0    48    5.5   185      7.2   847.8    0.00       0    60.0
 145   21:50   49.8    48    6.4   173      7.2   847.8    0.00       0    59.6
 145   22:00   50.1    48    5.2   175      6.2   847.8    0.00       0    59.3
 145   22:10   50.2    49    6.2   176      6.9   847.6    0.00       0    59.2
 145   22:20   49.9    49    6.1   177      6.9   847.7    0.00       0    59.1
 145   22:30   49.6    50    6.6   175      7.5   847.8    0.00       0    58.9
 145   22:40   50.2    49    6.1   174      6.8   847.8    0.00       0    58.7
 145   22:50   51.1    48    4.6   186      6.0   847.8    0.00       0    58.8
 145   23:00   51.2    49    2.8   181      4.3   847.9    0.00       0    58.9
 145   23:10   51.2    49    3.1   192      4.1   848.0    0.00       0    58.9
 145   23:20   51.6    49    4.0   219      5.8   848.1    0.00       0    58.9
 145   23:30   52.4    48    3.1   220      4.8   848.1    0.00       0    58.9
 145   23:40   52.7    47    4.8   224      7.5   848.2    0.00       0    58.8
 145   23:50   51.3    54    5.5   231      7.7   848.3    0.00       0    58.6
 146    0:00   50.1    58    4.9   230      6.9   848.3    0.00       0    58.4
 146    0:10   50.0    56    4.1   233      6.1   848.3    0.00       0    58.2
 146    0:20   49.8    54    5.7   214      7.5   848.2    0.00       0    58.1
 146    0:30   51.1    51    6.1   211      7.7   848.1    0.00       0    58.1
 146    0:40   51.8    49    4.8   220      7.5   848.1    0.00       0    58.2
 146    0:50   52.2    48    5.8   242      7.8   848.1    0.00       0    58.0
 146    1:00   51.7    50    4.7   283      7.5   848.1    0.00       0    58.0
 146    1:10   49.7    54    4.5   311      6.4   848.1    0.00       0    57.8
 146    1:20   50.0    54    3.0   224      4.3   848.2    0.00       0    57.8
 146    1:30   49.9    54    3.9   224      4.9   848.1    0.00       0    57.7
 146    1:40   49.9    54    4.3   234      6.4   848.1    0.00       0    57.6
 146    1:50   50.2    54    5.4   247      7.6   848.1    0.00       0    57.5
 146    2:00   50.6    53    5.5   248      7.1   848.0    0.00       0    57.5
 146    2:10   50.3    54    5.9   259      7.7   848.0    0.00       0    57.4
 146    2:20   49.7    54    4.7   260      6.1   848.0    0.00       0    57.1
 146    2:30   48.9    55    2.4   273      5.9   848.0    0.00       0    57.1
 146    2:40   47.1    59    0.6    14      2.6   848.0    0.00       0    56.9
 146    2:50   47.2    59    2.6   254      3.9   847.9    0.00       0    56.7
 146    3:00   47.0    59    2.1   225      3.7   847.8    0.00       0    56.6
 146    3:10   46.0    59    2.7   222      3.7   847.8    0.00       0    56.3
 146    3:20   43.5    62    3.5   226      4.5   847.5    0.00       0    56.1
 146    3:30   43.0    62    2.9   250      3.9   847.1    0.00       0    55.9
 146    3:40   43.0    63    2.2   222      3.4   846.7    0.00       0    55.7
 146    3:50   43.1    62    2.9   196      4.1   846.6    0.00       0    55.2
 146    4:00   42.0    64    4.6   206      5.8   846.5    0.00       0    55.1
 146    4:10   42.0    65    4.1   218      5.8   846.3    0.00       0    54.9
 146    4:20   42.3    64    3.1   204      3.8   846.2    0.00       0    54.8
 146    4:30   41.5    66    2.1   182      3.5   846.2    0.00       2    54.6
 146    4:40   42.1    65    3.2   214      4.5   846.3    0.00       3    54.4
 146    4:50   41.4    66    3.3   198      5.3   846.4    0.00       8    54.4
 146    5:00   41.6    65    2.3   158      3.9   846.5    0.00      16    54.2
 146    5:10   40.7    66    2.3    91      3.5   846.6    0.00      43    54.1
 146    5:20   41.1    66    2.5    20      3.9   846.8    0.00      48    54.1

Return to St. George, Utah graphs page.


Western Regional Climate Center,wrcc@dri.edu